sensor_id;sensor_type;location;lat;lon;timestamp;pressure;altitude;pressure_sealevel;temperature;humidity
64687;BME280;51113;53.646;-113.674;2022-07-23T00:01:30;93503.34;;;21.24;46.22
64687;BME280;51113;53.646;-113.674;2022-07-23T00:03:59;93505.28;;;21.58;47.34
64687;BME280;51113;53.646;-113.674;2022-07-23T00:06:28;93499.69;;;21.37;48.39
64687;BME280;51113;53.646;-113.674;2022-07-23T00:08:57;93501.13;;;21.34;47.57
64687;BME280;51113;53.646;-113.674;2022-07-23T00:11:26;93501.16;;;21.60;48.81
64687;BME280;51113;53.646;-113.674;2022-07-23T00:13:55;93507.66;;;21.68;48.00
64687;BME280;51113;53.646;-113.674;2022-07-23T00:16:25;93508.31;;;20.99;46.20
64687;BME280;51113;53.646;-113.674;2022-07-23T00:18:54;93507.09;;;21.14;46.26
64687;BME280;51113;53.646;-113.674;2022-07-23T00:21:23;93507.63;;;21.33;46.23
64687;BME280;51113;53.646;-113.674;2022-07-23T00:23:52;93506.84;;;21.41;46.34
64687;BME280;51113;53.646;-113.674;2022-07-23T00:26:21;93512.34;;;21.19;46.26
64687;BME280;51113;53.646;-113.674;2022-07-23T00:28:49;93506.47;;;21.17;47.26
64687;BME280;51113;53.646;-113.674;2022-07-23T00:31:18;93501.28;;;21.29;46.41
64687;BME280;51113;53.646;-113.674;2022-07-23T00:33:47;93503.19;;;21.37;47.16
64687;BME280;51113;53.646;-113.674;2022-07-23T00:36:16;93499.88;;;21.66;48.39
64687;BME280;51113;53.646;-113.674;2022-07-23T00:38:44;93518.00;;;21.57;45.16
64687;BME280;51113;53.646;-113.674;2022-07-23T00:41:13;93514.03;;;21.55;46.73
64687;BME280;51113;53.646;-113.674;2022-07-23T00:43:42;93514.63;;;21.34;45.76
64687;BME280;51113;53.646;-113.674;2022-07-23T00:46:10;93514.31;;;21.27;46.85
64687;BME280;51113;53.646;-113.674;2022-07-23T00:48:39;93521.00;;;21.47;45.54
64687;BME280;51113;53.646;-113.674;2022-07-23T00:51:07;93519.81;;;21.13;46.13
64687;BME280;51113;53.646;-113.674;2022-07-23T00:53:36;93523.53;;;20.86;46.42
64687;BME280;51113;53.646;-113.674;2022-07-23T00:56:05;93517.19;;;20.91;47.16
64687;BME280;51113;53.646;-113.674;2022-07-23T00:58:35;93523.38;;;20.83;46.60
64687;BME280;51113;53.646;-113.674;2022-07-23T01:01:04;93517.69;;;20.93;46.32
64687;BME280;51113;53.646;-113.674;2022-07-23T01:03:33;93511.16;;;20.94;46.48
64687;BME280;51113;53.646;-113.674;2022-07-23T01:06:02;93512.13;;;20.98;46.00
64687;BME280;51113;53.646;-113.674;2022-07-23T01:08:30;93518.63;;;20.89;46.58
64687;BME280;51113;53.646;-113.674;2022-07-23T01:10:59;93522.91;;;20.90;46.35
64687;BME280;51113;53.646;-113.674;2022-07-23T01:13:28;93514.47;;;20.82;45.85
64687;BME280;51113;53.646;-113.674;2022-07-23T01:15:56;93510.91;;;20.73;48.52
64687;BME280;51113;53.646;-113.674;2022-07-23T01:18:25;93507.69;;;20.94;47.67
64687;BME280;51113;53.646;-113.674;2022-07-23T01:20:53;93512.16;;;21.07;49.96
64687;BME280;51113;53.646;-113.674;2022-07-23T01:23:22;93516.28;;;21.04;46.04
64687;BME280;51113;53.646;-113.674;2022-07-23T01:25:54;93512.59;;;20.92;49.20
64687;BME280;51113;53.646;-113.674;2022-07-23T01:28:23;93525.31;;;21.00;47.68
64687;BME280;51113;53.646;-113.674;2022-07-23T01:30:52;93528.66;;;20.97;45.10
64687;BME280;51113;53.646;-113.674;2022-07-23T01:33:20;93538.16;;;20.94;47.44
64687;BME280;51113;53.646;-113.674;2022-07-23T01:35:49;93528.50;;;21.02;48.46
64687;BME280;51113;53.646;-113.674;2022-07-23T01:38:18;93532.63;;;20.99;47.54
64687;BME280;51113;53.646;-113.674;2022-07-23T01:40:48;93547.56;;;20.97;45.24
64687;BME280;51113;53.646;-113.674;2022-07-23T01:43:21;93546.50;;;20.75;45.30
64687;BME280;51113;53.646;-113.674;2022-07-23T01:45:53;93542.78;;;20.94;47.87
64687;BME280;51113;53.646;-113.674;2022-07-23T01:48:22;93553.75;;;20.97;46.83
64687;BME280;51113;53.646;-113.674;2022-07-23T01:50:50;93553.38;;;20.81;45.35
64687;BME280;51113;53.646;-113.674;2022-07-23T01:53:20;93545.34;;;20.68;47.81
64687;BME280;51113;53.646;-113.674;2022-07-23T01:55:48;93561.03;;;20.88;44.87
64687;BME280;51113;53.646;-113.674;2022-07-23T01:58:17;93552.63;;;20.67;45.61
64687;BME280;51113;53.646;-113.674;2022-07-23T02:00:46;93554.72;;;20.70;46.05
64687;BME280;51113;53.646;-113.674;2022-07-23T02:03:14;93555.19;;;20.72;46.27
64687;BME280;51113;53.646;-113.674;2022-07-23T02:05:42;93559.06;;;20.49;45.54
64687;BME280;51113;53.646;-113.674;2022-07-23T02:08:11;93554.41;;;20.41;46.14
64687;BME280;51113;53.646;-113.674;2022-07-23T02:10:40;93561.94;;;20.30;46.37
64687;BME280;51113;53.646;-113.674;2022-07-23T02:13:08;93557.81;;;20.33;45.81
64687;BME280;51113;53.646;-113.674;2022-07-23T02:15:45;93568.91;;;20.09;45.63
64687;BME280;51113;53.646;-113.674;2022-07-23T02:18:15;93561.31;;;20.11;49.10
64687;BME280;51113;53.646;-113.674;2022-07-23T02:20:43;93565.78;;;20.15;48.12
64687;BME280;51113;53.646;-113.674;2022-07-23T02:23:12;93564.19;;;20.14;49.02
64687;BME280;51113;53.646;-113.674;2022-07-23T02:25:41;93571.63;;;20.09;47.00
64687;BME280;51113;53.646;-113.674;2022-07-23T02:28:10;93572.97;;;19.98;47.44
64687;BME280;51113;53.646;-113.674;2022-07-23T02:30:38;93578.03;;;19.99;47.38
64687;BME280;51113;53.646;-113.674;2022-07-23T02:33:08;93568.19;;;19.95;48.39
64687;BME280;51113;53.646;-113.674;2022-07-23T02:35:36;93580.50;;;19.87;47.56
64687;BME280;51113;53.646;-113.674;2022-07-23T02:38:05;93578.22;;;19.80;48.13
64687;BME280;51113;53.646;-113.674;2022-07-23T02:40:34;93580.34;;;19.70;49.06
64687;BME280;51113;53.646;-113.674;2022-07-23T02:43:02;93586.81;;;19.69;48.07
64687;BME280;51113;53.646;-113.674;2022-07-23T02:45:31;93586.38;;;19.53;48.84
64687;BME280;51113;53.646;-113.674;2022-07-23T02:47:59;93584.94;;;19.42;49.27
64687;BME280;51113;53.646;-113.674;2022-07-23T02:50:28;93591.84;;;19.34;49.51
64687;BME280;51113;53.646;-113.674;2022-07-23T02:52:56;93582.47;;;19.32;50.09
64687;BME280;51113;53.646;-113.674;2022-07-23T02:55:25;93584.28;;;19.22;50.18
64687;BME280;51113;53.646;-113.674;2022-07-23T02:57:53;93592.16;;;19.19;51.83
64687;BME280;51113;53.646;-113.674;2022-07-23T03:00:23;93590.66;;;18.99;53.98
64687;BME280;51113;53.646;-113.674;2022-07-23T03:02:51;93594.56;;;18.93;51.90
64687;BME280;51113;53.646;-113.674;2022-07-23T03:05:20;93582.97;;;18.79;54.28
64687;BME280;51113;53.646;-113.674;2022-07-23T03:07:49;93585.56;;;18.70;54.78
64687;BME280;51113;53.646;-113.674;2022-07-23T03:10:17;93590.47;;;18.49;54.73
64687;BME280;51113;53.646;-113.674;2022-07-23T03:12:45;93595.25;;;18.52;55.17
64687;BME280;51113;53.646;-113.674;2022-07-23T03:15:14;93588.56;;;18.36;57.01
64687;BME280;51113;53.646;-113.674;2022-07-23T03:17:44;93588.00;;;18.20;56.12
64687;BME280;51113;53.646;-113.674;2022-07-23T03:20:13;93591.81;;;18.33;55.14
64687;BME280;51113;53.646;-113.674;2022-07-23T03:22:42;93592.63;;;18.34;55.21
64687;BME280;51113;53.646;-113.674;2022-07-23T03:25:10;93592.22;;;18.26;55.35
64687;BME280;51113;53.646;-113.674;2022-07-23T03:27:39;93588.28;;;18.19;55.40
64687;BME280;51113;53.646;-113.674;2022-07-23T03:30:07;93592.84;;;18.18;56.15
64687;BME280;51113;53.646;-113.674;2022-07-23T03:32:36;93594.09;;;18.07;55.57
64687;BME280;51113;53.646;-113.674;2022-07-23T03:35:05;93592.06;;;17.99;56.07
64687;BME280;51113;53.646;-113.674;2022-07-23T03:37:35;93603.41;;;17.96;55.91
64687;BME280;51113;53.646;-113.674;2022-07-23T03:40:05;93597.41;;;17.85;56.19
64687;BME280;51113;53.646;-113.674;2022-07-23T03:42:34;93607.84;;;17.68;57.40
64687;BME280;51113;53.646;-113.674;2022-07-23T03:45:05;93603.94;;;17.79;56.67
64687;BME280;51113;53.646;-113.674;2022-07-23T03:47:34;93607.06;;;17.67;57.43
64687;BME280;51113;53.646;-113.674;2022-07-23T03:50:03;93612.31;;;17.54;57.97
64687;BME280;51113;53.646;-113.674;2022-07-23T03:52:31;93616.09;;;17.53;57.79
64687;BME280;51113;53.646;-113.674;2022-07-23T03:54:59;93605.94;;;17.50;58.11
64687;BME280;51113;53.646;-113.674;2022-07-23T03:57:28;93615.78;;;17.35;58.44
64687;BME280;51113;53.646;-113.674;2022-07-23T03:59:57;93608.44;;;17.22;59.98
64687;BME280;51113;53.646;-113.674;2022-07-23T04:02:26;93606.72;;;17.08;60.51
64687;BME280;51113;53.646;-113.674;2022-07-23T04:04:55;93609.53;;;16.97;60.99
64687;BME280;51113;53.646;-113.674;2022-07-23T04:07:23;93611.06;;;16.80;61.39
64687;BME280;51113;53.646;-113.674;2022-07-23T04:09:52;93610.44;;;16.59;62.67
64687;BME280;51113;53.646;-113.674;2022-07-23T04:12:20;93613.28;;;16.44;62.86
64687;BME280;51113;53.646;-113.674;2022-07-23T04:14:49;93612.53;;;16.67;59.10
64687;BME280;51113;53.646;-113.674;2022-07-23T04:17:18;93614.81;;;16.79;58.88
64687;BME280;51113;53.646;-113.674;2022-07-23T04:19:47;93610.50;;;16.83;58.30
64687;BME280;51113;53.646;-113.674;2022-07-23T04:22:16;93618.25;;;16.84;58.27
64687;BME280;51113;53.646;-113.674;2022-07-23T04:24:44;93612.25;;;16.68;60.30
64687;BME280;51113;53.646;-113.674;2022-07-23T04:27:15;93609.28;;;16.70;58.86
64687;BME280;51113;53.646;-113.674;2022-07-23T04:29:43;93613.78;;;16.75;59.22
64687;BME280;51113;53.646;-113.674;2022-07-23T04:32:12;93625.38;;;16.70;59.62
64687;BME280;51113;53.646;-113.674;2022-07-23T04:34:40;93621.41;;;16.62;60.02
64687;BME280;51113;53.646;-113.674;2022-07-23T04:37:09;93613.41;;;16.57;60.54
64687;BME280;51113;53.646;-113.674;2022-07-23T04:39:38;93617.22;;;16.51;61.21
64687;BME280;51113;53.646;-113.674;2022-07-23T04:42:06;93615.09;;;16.48;61.47
64687;BME280;51113;53.646;-113.674;2022-07-23T04:44:37;93623.72;;;16.45;61.88
64687;BME280;51113;53.646;-113.674;2022-07-23T04:47:06;93623.00;;;16.34;62.47
64687;BME280;51113;53.646;-113.674;2022-07-23T04:49:35;93626.81;;;16.28;62.78
64687;BME280;51113;53.646;-113.674;2022-07-23T04:52:03;93627.97;;;16.17;63.66
64687;BME280;51113;53.646;-113.674;2022-07-23T04:54:32;93625.94;;;16.04;64.29
64687;BME280;51113;53.646;-113.674;2022-07-23T04:57:00;93631.88;;;15.96;64.94
64687;BME280;51113;53.646;-113.674;2022-07-23T04:59:30;93630.88;;;15.87;65.73
64687;BME280;51113;53.646;-113.674;2022-07-23T05:01:58;93632.50;;;15.83;66.01
64687;BME280;51113;53.646;-113.674;2022-07-23T05:04:27;93638.69;;;15.78;66.40
64687;BME280;51113;53.646;-113.674;2022-07-23T05:06:55;93629.09;;;15.72;66.74
64687;BME280;51113;53.646;-113.674;2022-07-23T05:09:24;93630.97;;;15.71;67.13
64687;BME280;51113;53.646;-113.674;2022-07-23T05:11:53;93636.59;;;15.70;67.44
64687;BME280;51113;53.646;-113.674;2022-07-23T05:14:22;93639.25;;;15.75;67.08
64687;BME280;51113;53.646;-113.674;2022-07-23T05:16:50;93633.94;;;15.70;67.33
64687;BME280;51113;53.646;-113.674;2022-07-23T05:19:19;93639.56;;;15.68;67.25
64687;BME280;51113;53.646;-113.674;2022-07-23T05:21:51;93635.84;;;15.64;67.88
64687;BME280;51113;53.646;-113.674;2022-07-23T05:24:19;93630.22;;;15.61;68.00
64687;BME280;51113;53.646;-113.674;2022-07-23T05:26:48;93636.66;;;15.50;68.44
64687;BME280;51113;53.646;-113.674;2022-07-23T05:29:17;93631.59;;;15.43;68.67
64687;BME280;51113;53.646;-113.674;2022-07-23T05:31:45;93636.44;;;15.41;68.83
64687;BME280;51113;53.646;-113.674;2022-07-23T05:34:14;93627.34;;;15.37;69.21
64687;BME280;51113;53.646;-113.674;2022-07-23T05:36:44;93638.88;;;15.37;69.21
64687;BME280;51113;53.646;-113.674;2022-07-23T05:39:12;93637.50;;;15.40;69.29
64687;BME280;51113;53.646;-113.674;2022-07-23T05:41:41;93634.06;;;15.34;69.28
64687;BME280;51113;53.646;-113.674;2022-07-23T05:44:09;93641.03;;;15.30;69.68
64687;BME280;51113;53.646;-113.674;2022-07-23T05:46:38;93635.97;;;15.29;69.71
64687;BME280;51113;53.646;-113.674;2022-07-23T05:49:06;93638.63;;;15.29;70.11
64687;BME280;51113;53.646;-113.674;2022-07-23T05:51:35;93645.09;;;15.23;69.91
64687;BME280;51113;53.646;-113.674;2022-07-23T05:54:04;93638.41;;;15.15;70.32
64687;BME280;51113;53.646;-113.674;2022-07-23T05:56:33;93637.38;;;15.11;70.60
64687;BME280;51113;53.646;-113.674;2022-07-23T05:59:01;93637.13;;;15.07;70.91
64687;BME280;51113;53.646;-113.674;2022-07-23T06:01:31;93640.88;;;15.06;70.59
64687;BME280;51113;53.646;-113.674;2022-07-23T06:04:00;93647.84;;;14.97;70.84
64687;BME280;51113;53.646;-113.674;2022-07-23T06:06:29;93647.31;;;15.00;71.01
64687;BME280;51113;53.646;-113.674;2022-07-23T06:08:57;93651.06;;;14.94;71.27
64687;BME280;51113;53.646;-113.674;2022-07-23T06:11:27;93651.31;;;14.98;71.28
64687;BME280;51113;53.646;-113.674;2022-07-23T06:13:55;93657.75;;;14.92;71.25
64687;BME280;51113;53.646;-113.674;2022-07-23T06:16:24;93657.75;;;14.92;71.63
64687;BME280;51113;53.646;-113.674;2022-07-23T06:18:52;93655.63;;;14.89;71.79
64687;BME280;51113;53.646;-113.674;2022-07-23T06:21:21;93661.25;;;14.87;71.67
64687;BME280;51113;53.646;-113.674;2022-07-23T06:24:09;93656.97;;;14.86;71.96
64687;BME280;51113;53.646;-113.674;2022-07-23T06:26:38;93662.06;;;14.83;72.16
64687;BME280;51113;53.646;-113.674;2022-07-23T06:29:07;93665.53;;;14.83;72.52
64687;BME280;51113;53.646;-113.674;2022-07-23T06:31:36;93661.25;;;14.82;72.64
64687;BME280;51113;53.646;-113.674;2022-07-23T06:34:05;93668.75;;;14.85;72.52
64687;BME280;51113;53.646;-113.674;2022-07-23T06:36:34;93674.63;;;14.87;72.61
64687;BME280;51113;53.646;-113.674;2022-07-23T06:39:02;93674.09;;;14.85;72.51
64687;BME280;51113;53.646;-113.674;2022-07-23T06:41:31;93667.69;;;14.81;72.68
64687;BME280;51113;53.646;-113.674;2022-07-23T06:44:00;93667.94;;;14.79;72.65
64687;BME280;51113;53.646;-113.674;2022-07-23T06:46:28;93666.34;;;14.78;73.01
64687;BME280;51113;53.646;-113.674;2022-07-23T06:48:57;93662.34;;;14.71;73.27
64687;BME280;51113;53.646;-113.674;2022-07-23T06:51:27;93669.84;;;14.74;73.09
64687;BME280;51113;53.646;-113.674;2022-07-23T06:53:55;93667.16;;;14.69;73.23
64687;BME280;51113;53.646;-113.674;2022-07-23T06:56:24;93669.84;;;14.64;73.11
64687;BME280;51113;53.646;-113.674;2022-07-23T06:58:53;93667.44;;;14.62;73.21
64687;BME280;51113;53.646;-113.674;2022-07-23T07:01:22;93677.88;;;14.64;72.85
64687;BME280;51113;53.646;-113.674;2022-07-23T07:03:50;93671.72;;;14.68;73.25
64687;BME280;51113;53.646;-113.674;2022-07-23T07:06:19;93679.47;;;14.65;72.87
64687;BME280;51113;53.646;-113.674;2022-07-23T07:08:48;93675.72;;;14.66;72.78
64687;BME280;51113;53.646;-113.674;2022-07-23T07:11:18;93677.34;;;14.62;72.54
64687;BME280;51113;53.646;-113.674;2022-07-23T07:13:46;93678.13;;;14.62;72.61
64687;BME280;51113;53.646;-113.674;2022-07-23T07:16:15;93675.19;;;14.64;72.77
64687;BME280;51113;53.646;-113.674;2022-07-23T07:18:44;93672.78;;;14.62;72.80
64687;BME280;51113;53.646;-113.674;2022-07-23T07:21:12;93686.16;;;14.57;72.78
64687;BME280;51113;53.646;-113.674;2022-07-23T07:23:41;93678.69;;;14.59;72.64
64687;BME280;51113;53.646;-113.674;2022-07-23T07:26:10;93679.50;;;14.55;72.58
64687;BME280;51113;53.646;-113.674;2022-07-23T07:28:38;93681.63;;;14.53;72.54
64687;BME280;51113;53.646;-113.674;2022-07-23T07:31:07;93685.91;;;14.48;72.74
64687;BME280;51113;53.646;-113.674;2022-07-23T07:33:35;93696.06;;;14.46;73.05
64687;BME280;51113;53.646;-113.674;2022-07-23T07:36:04;93689.66;;;14.42;73.08
64687;BME280;51113;53.646;-113.674;2022-07-23T07:38:33;93691.22;;;14.38;72.93
64687;BME280;51113;53.646;-113.674;2022-07-23T07:41:02;93686.41;;;14.35;73.36
64687;BME280;51113;53.646;-113.674;2022-07-23T07:43:30;93692.28;;;14.32;73.28
64687;BME280;51113;53.646;-113.674;2022-07-23T07:45:59;93679.47;;;14.29;73.70
64687;BME280;51113;53.646;-113.674;2022-07-23T07:48:28;93687.22;;;14.26;73.59
64687;BME280;51113;53.646;-113.674;2022-07-23T07:50:57;93671.47;;;14.24;73.92
64687;BME280;51113;53.646;-113.674;2022-07-23T07:53:25;93662.91;;;14.12;74.38
64687;BME280;51113;53.646;-113.674;2022-07-23T07:55:54;93663.97;;;14.11;74.53
64687;BME280;51113;53.646;-113.674;2022-07-23T07:58:23;93655.44;;;14.09;74.67
64687;BME280;51113;53.646;-113.674;2022-07-23T08:00:52;93664.50;;;14.03;74.81
64687;BME280;51113;53.646;-113.674;2022-07-23T08:03:20;93656.47;;;13.98;75.03
64687;BME280;51113;53.646;-113.674;2022-07-23T08:05:49;93659.69;;;13.95;75.42
64687;BME280;51113;53.646;-113.674;2022-07-23T08:08:18;93662.63;;;13.98;75.73
64687;BME280;51113;53.646;-113.674;2022-07-23T08:10:47;93669.84;;;13.98;75.60
64687;BME280;51113;53.646;-113.674;2022-07-23T08:13:15;93673.56;;;13.92;75.67
64687;BME280;51113;53.646;-113.674;2022-07-23T08:15:44;93677.84;;;13.88;76.17
64687;BME280;51113;53.646;-113.674;2022-07-23T08:18:13;93677.84;;;13.88;76.47
64687;BME280;51113;53.646;-113.674;2022-07-23T08:20:41;93680.78;;;13.86;76.44
64687;BME280;51113;53.646;-113.674;2022-07-23T08:23:10;93686.38;;;13.79;76.93
64687;BME280;51113;53.646;-113.674;2022-07-23T08:25:41;93689.81;;;13.75;76.93
64687;BME280;51113;53.646;-113.674;2022-07-23T08:28:12;93688.50;;;13.77;77.09
64687;BME280;51113;53.646;-113.674;2022-07-23T08:30:43;93696.25;;;13.84;76.87
64687;BME280;51113;53.646;-113.674;2022-07-23T08:33:14;93692.78;;;13.83;76.74
64687;BME280;51113;53.646;-113.674;2022-07-23T08:36:01;93692.53;;;13.90;76.70
64687;BME280;51113;53.646;-113.674;2022-07-23T08:38:32;93685.31;;;13.91;76.63
64687;BME280;51113;53.646;-113.674;2022-07-23T08:41:02;93688.53;;;13.93;76.53
64687;BME280;51113;53.646;-113.674;2022-07-23T08:43:33;93691.47;;;13.96;76.34
64687;BME280;51113;53.646;-113.674;2022-07-23T08:46:03;93687.47;;;13.94;76.33
64687;BME280;51113;53.646;-113.674;2022-07-23T08:48:34;93686.41;;;14.00;76.78
64687;BME280;51113;53.646;-113.674;2022-07-23T08:51:06;93688.53;;;13.98;76.84
64687;BME280;51113;53.646;-113.674;2022-07-23T08:53:35;93683.47;;;14.01;76.92
64687;BME280;51113;53.646;-113.674;2022-07-23T08:56:06;93683.72;;;13.95;77.10
64687;BME280;51113;53.646;-113.674;2022-07-23T08:58:36;93687.72;;;13.87;77.10
64687;BME280;51113;53.646;-113.674;2022-07-23T09:01:04;93684.78;;;13.89;77.03
64687;BME280;51113;53.646;-113.674;2022-07-23T09:03:35;93688.50;;;13.88;77.28
64687;BME280;51113;53.646;-113.674;2022-07-23T09:06:04;93688.50;;;13.88;77.78
64687;BME280;51113;53.646;-113.674;2022-07-23T09:08:38;93682.09;;;13.89;77.62
64687;BME280;51113;53.646;-113.674;2022-07-23T09:11:09;93688.78;;;13.91;77.71
64687;BME280;51113;53.646;-113.674;2022-07-23T09:13:51;93691.19;;;13.93;77.88
64687;BME280;51113;53.646;-113.674;2022-07-23T09:16:26;93688.25;;;13.89;78.03
64687;BME280;51113;53.646;-113.674;2022-07-23T09:18:57;93686.66;;;13.88;77.89
64687;BME280;51113;53.646;-113.674;2022-07-23T09:21:37;93694.09;;;13.81;78.56
64687;BME280;51113;53.646;-113.674;2022-07-23T09:24:11;93697.31;;;13.78;78.81
64687;BME280;51113;53.646;-113.674;2022-07-23T09:26:45;93695.69;;;13.77;79.39
64687;BME280;51113;53.646;-113.674;2022-07-23T09:29:23;93697.78;;;13.55;79.90
64687;BME280;51113;53.646;-113.674;2022-07-23T09:31:58;93701.75;;;13.42;80.98
64687;BME280;51113;53.646;-113.674;2022-07-23T09:34:28;93693.97;;;13.35;81.39
64687;BME280;51113;53.646;-113.674;2022-07-23T09:37:14;93685.25;;;13.55;80.32
64687;BME280;51113;53.646;-113.674;2022-07-23T09:39:43;93677.78;;;13.67;79.91
64687;BME280;51113;53.646;-113.674;2022-07-23T09:44:51;93670.84;;;13.66;79.86
64687;BME280;51113;53.646;-113.674;2022-07-23T09:47:22;93679.38;;;13.58;80.53
64687;BME280;51113;53.646;-113.674;2022-07-23T09:50:08;93674.84;;;13.59;80.53
64687;BME280;51113;53.646;-113.674;2022-07-23T09:52:45;93681.25;;;13.63;80.62
64687;BME280;51113;53.646;-113.674;2022-07-23T09:55:17;93672.72;;;13.61;80.62
64687;BME280;51113;53.646;-113.674;2022-07-23T09:57:47;93687.38;;;13.58;81.08
64687;BME280;51113;53.646;-113.674;2022-07-23T10:00:22;93687.13;;;13.60;80.94
64687;BME280;51113;53.646;-113.674;2022-07-23T10:02:52;93686.81;;;13.46;81.34
64687;BME280;51113;53.646;-113.674;2022-07-23T10:05:21;93682.53;;;13.40;81.53
64687;BME280;51113;53.646;-113.674;2022-07-23T10:07:50;93679.28;;;13.33;82.32
64687;BME280;51113;53.646;-113.674;2022-07-23T10:10:21;93685.41;;;13.28;82.64
64687;BME280;51113;53.646;-113.674;2022-07-23T10:12:51;93683.00;;;13.27;82.84
64687;BME280;51113;53.646;-113.674;2022-07-23T10:15:20;93682.19;;;13.21;83.07
64687;BME280;51113;53.646;-113.674;2022-07-23T10:17:48;93684.84;;;13.21;83.46
64687;BME280;51113;53.646;-113.674;2022-07-23T10:20:17;93676.56;;;13.17;83.52
64687;BME280;51113;53.646;-113.674;2022-07-23T10:25:36;93682.97;;;13.16;83.50
64687;BME280;51113;53.646;-113.674;2022-07-23T10:34:02;93703.69;;;13.04;83.92
64687;BME280;51113;53.646;-113.674;2022-07-23T10:39:26;93717.00;;;13.04;84.25
64687;BME280;51113;53.646;-113.674;2022-07-23T10:42:16;93708.06;;;13.21;83.84
64687;BME280;51113;53.646;-113.674;2022-07-23T10:44:48;93697.16;;;13.32;83.28
64687;BME280;51113;53.646;-113.674;2022-07-23T10:47:28;93701.47;;;13.38;82.76
64687;BME280;51113;53.646;-113.674;2022-07-23T10:58:04;93690.75;;;13.28;82.30
64687;BME280;51113;53.646;-113.674;2022-07-23T11:00:35;93691.00;;;13.27;82.43
64687;BME280;51113;53.646;-113.674;2022-07-23T11:03:29;93680.06;;;13.23;82.16
64687;BME280;51113;53.646;-113.674;2022-07-23T11:06:00;93687.53;;;13.21;82.30
64687;BME280;51113;53.646;-113.674;2022-07-23T11:08:29;93691.50;;;13.18;82.09
64687;BME280;51113;53.646;-113.674;2022-07-23T11:13:39;93694.97;;;13.19;82.42
64687;BME280;51113;53.646;-113.674;2022-07-23T11:16:14;93694.44;;;13.17;82.09
64687;BME280;51113;53.646;-113.674;2022-07-23T11:29:40;93688.75;;;13.03;82.12
64687;BME280;51113;53.646;-113.674;2022-07-23T11:34:47;93692.13;;;12.94;82.46
64687;BME280;51113;53.646;-113.674;2022-07-23T11:37:38;93691.53;;;12.81;82.90
64687;BME280;51113;53.646;-113.674;2022-07-23T11:40:16;93702.19;;;12.81;82.87
64687;BME280;51113;53.646;-113.674;2022-07-23T11:43:04;93692.88;;;12.84;83.10
64687;BME280;51113;53.646;-113.674;2022-07-23T11:45:38;93700.34;;;12.87;83.00
64687;BME280;51113;53.646;-113.674;2022-07-23T11:48:15;93710.47;;;12.85;82.46
64687;BME280;51113;53.646;-113.674;2022-07-23T11:50:44;93711.53;;;12.84;82.70
64687;BME280;51113;53.646;-113.674;2022-07-23T11:53:15;93711.03;;;12.87;82.77
64687;BME280;51113;53.646;-113.674;2022-07-23T11:55:49;93705.16;;;12.90;82.71
64687;BME280;51113;53.646;-113.674;2022-07-23T11:58:18;93701.22;;;12.98;82.31
64687;BME280;51113;53.646;-113.674;2022-07-23T12:00:47;93686.53;;;12.95;82.14
64687;BME280;51113;53.646;-113.674;2022-07-23T12:03:17;93698.25;;;12.94;82.10
64687;BME280;51113;53.646;-113.674;2022-07-23T12:05:46;93704.66;;;12.93;82.30
64687;BME280;51113;53.646;-113.674;2022-07-23T12:08:14;93705.19;;;12.95;82.23
64687;BME280;51113;53.646;-113.674;2022-07-23T12:10:44;93702.78;;;12.94;82.02
64687;BME280;51113;53.646;-113.674;2022-07-23T12:13:15;93703.28;;;12.85;82.15
64687;BME280;51113;53.646;-113.674;2022-07-23T12:15:49;93706.75;;;12.86;82.70
64687;BME280;51113;53.646;-113.674;2022-07-23T12:18:23;93708.91;;;12.89;82.33
64687;BME280;51113;53.646;-113.674;2022-07-23T12:20:55;93703.53;;;12.84;82.24
64687;BME280;51113;53.646;-113.674;2022-07-23T12:23:28;93701.66;;;12.79;82.75
64687;BME280;51113;53.646;-113.674;2022-07-23T12:26:01;93696.81;;;12.76;82.71
64687;BME280;51113;53.646;-113.674;2022-07-23T12:28:31;93694.75;;;12.83;82.62
64687;BME280;51113;53.646;-113.674;2022-07-23T12:31:01;93696.09;;;12.86;82.35
64687;BME280;51113;53.646;-113.674;2022-07-23T12:33:35;93696.84;;;12.81;82.42
64687;BME280;51113;53.646;-113.674;2022-07-23T12:36:07;93694.19;;;12.81;82.70
64687;BME280;51113;53.646;-113.674;2022-07-23T12:38:40;93704.25;;;12.69;83.28
64687;BME280;51113;53.646;-113.674;2022-07-23T12:41:08;93705.03;;;12.70;83.52
64687;BME280;51113;53.646;-113.674;2022-07-23T12:43:41;93700.06;;;12.83;82.91
64687;BME280;51113;53.646;-113.674;2022-07-23T12:46:20;93696.63;;;12.88;82.45
64687;BME280;51113;53.646;-113.674;2022-07-23T12:51:22;93691.88;;;12.95;81.69
64687;BME280;51113;53.646;-113.674;2022-07-23T12:54:04;93687.06;;;12.92;82.37
64687;BME280;51113;53.646;-113.674;2022-07-23T12:56:38;93698.75;;;12.86;82.50
64687;BME280;51113;53.646;-113.674;2022-07-23T12:59:15;93700.34;;;12.87;82.19
64687;BME280;51113;53.646;-113.674;2022-07-23T13:02:04;93702.53;;;12.95;81.88
64687;BME280;51113;53.646;-113.674;2022-07-23T13:04:37;93713.00;;;13.02;82.04
64687;BME280;51113;53.646;-113.674;2022-07-23T13:07:07;93713.81;;;13.02;81.74
64687;BME280;51113;53.646;-113.674;2022-07-23T13:09:36;93713.56;;;13.09;82.31
64687;BME280;51113;53.646;-113.674;2022-07-23T13:12:08;93711.19;;;13.12;81.57
64687;BME280;51113;53.646;-113.674;2022-07-23T13:14:38;93709.91;;;13.20;81.06
64687;BME280;51113;53.646;-113.674;2022-07-23T13:17:08;93721.69;;;13.29;80.94
64687;BME280;51113;53.646;-113.674;2022-07-23T13:19:36;93717.47;;;13.38;80.28
64687;BME280;51113;53.646;-113.674;2022-07-23T13:22:05;93721.53;;;13.51;79.31
64687;BME280;51113;53.646;-113.674;2022-07-23T13:24:36;93726.91;;;13.71;78.68
64687;BME280;51113;53.646;-113.674;2022-07-23T13:27:06;93725.63;;;13.94;77.57